Aviation Digital Data Service (ADDS)

Output produced by METARs form (2024 UTC 18 August 2017)
found at http://aviationweather.gov/adds/metars/
 
KACK 181731Z 1818/1918 17011KT 6SM -RA BR SCT025 BKN035 
     FM182300 17015KT P6SM -RA VCTS BKN015CB 
     FM190400 18019KT 3SM RA BR VCTS OVC008CB 
     FM190700 18019KT 2SM RA BR VCTS OVC004CB